sensor_id;sensor_type;location;lat;lon;timestamp;pressure;altitude;pressure_sealevel;temperature;humidity
44453;BME280;30155;52.164;21.236;2022-12-18T00:02:15;101879.57;;;-5.07;81.71
44453;BME280;30155;52.164;21.236;2022-12-18T00:07:06;101886.30;;;-5.08;81.77
44453;BME280;30155;52.164;21.236;2022-12-18T00:11:57;101896.56;;;-5.06;81.68
44453;BME280;30155;52.164;21.236;2022-12-18T00:16:49;101904.55;;;-5.07;81.62
44453;BME280;30155;52.164;21.236;2022-12-18T00:21:41;101910.16;;;-5.06;81.78
44453;BME280;30155;52.164;21.236;2022-12-18T00:26:34;101911.20;;;-5.04;81.76
44453;BME280;30155;52.164;21.236;2022-12-18T00:31:26;101920.59;;;-5.03;81.86
44453;BME280;30155;52.164;21.236;2022-12-18T00:36:20;101926.51;;;-4.99;81.89
44453;BME280;30155;52.164;21.236;2022-12-18T00:41:17;101926.51;;;-4.99;81.86
44453;BME280;30155;52.164;21.236;2022-12-18T00:46:10;101946.89;;;-4.93;82.00
44453;BME280;30155;52.164;21.236;2022-12-18T00:51:01;101945.89;;;-4.90;82.01
44453;BME280;30155;52.164;21.236;2022-12-18T00:55:53;101944.78;;;-4.89;81.86
44453;BME280;30155;52.164;21.236;2022-12-18T01:00:44;101942.40;;;-4.87;81.87
44453;BME280;30155;52.164;21.236;2022-12-18T01:05:38;101954.77;;;-4.90;81.44
44453;BME280;30155;52.164;21.236;2022-12-18T01:10:31;101964.48;;;-4.95;81.69
44453;BME280;30155;52.164;21.236;2022-12-18T01:15:22;101962.30;;;-4.95;81.69
44453;BME280;30155;52.164;21.236;2022-12-18T01:20:13;101973.72;;;-4.95;81.68
44453;BME280;30155;52.164;21.236;2022-12-18T01:25:05;101980.75;;;-4.93;81.84
44453;BME280;30155;52.164;21.236;2022-12-18T01:29:57;101982.91;;;-4.92;81.58
44453;BME280;30155;52.164;21.236;2022-12-18T01:34:48;101987.98;;;-4.92;81.53
44453;BME280;30155;52.164;21.236;2022-12-18T01:39:39;101998.35;;;-4.94;81.51
44453;BME280;30155;52.164;21.236;2022-12-18T01:45:00;102004.16;;;-4.95;81.63
44453;BME280;30155;52.164;21.236;2022-12-18T01:49:55;102018.64;;;-4.94;81.66
44453;BME280;30155;52.164;21.236;2022-12-18T01:54:49;102025.94;;;-4.98;81.50
44453;BME280;30155;52.164;21.236;2022-12-18T01:59:42;102018.33;;;-4.98;81.67
44453;BME280;30155;52.164;21.236;2022-12-18T02:04:35;102027.53;;;-4.94;81.68
44453;BME280;30155;52.164;21.236;2022-12-18T02:09:36;102030.80;;;-4.95;81.58
44453;BME280;30155;52.164;21.236;2022-12-18T02:20:12;102045.66;;;-4.95;81.74
44453;BME280;30155;52.164;21.236;2022-12-18T02:30:57;102067.33;;;-4.90;81.79
44453;BME280;30155;52.164;21.236;2022-12-18T02:35:53;102072.75;;;-4.90;81.85
44453;BME280;30155;52.164;21.236;2022-12-18T02:40:47;102066.34;;;-4.87;81.92
44453;BME280;30155;52.164;21.236;2022-12-18T02:45:53;102076.27;;;-4.85;81.83
44453;BME280;30155;52.164;21.236;2022-12-18T02:50:51;102082.26;;;-4.84;81.77
44453;BME280;30155;52.164;21.236;2022-12-18T02:56:14;102090.60;;;-4.85;81.78
44453;BME280;30155;52.164;21.236;2022-12-18T03:01:28;102095.23;;;-4.81;81.94
44453;BME280;30155;52.164;21.236;2022-12-18T03:06:33;102097.48;;;-4.84;81.43
44453;BME280;30155;52.164;21.236;2022-12-18T03:11:25;102118.34;;;-4.87;81.54
44453;BME280;30155;52.164;21.236;2022-12-18T03:16:37;102133.41;;;-4.88;81.18
44453;BME280;30155;52.164;21.236;2022-12-18T03:21:34;102129.73;;;-4.95;81.16
44453;BME280;30155;52.164;21.236;2022-12-18T03:26:28;102133.25;;;-4.99;81.14
44453;BME280;30155;52.164;21.236;2022-12-18T03:31:23;102136.73;;;-5.02;80.91
44453;BME280;30155;52.164;21.236;2022-12-18T03:36:17;102140.38;;;-5.03;80.88
44453;BME280;30155;52.164;21.236;2022-12-18T03:41:34;102145.56;;;-5.10;80.55
44453;BME280;30155;52.164;21.236;2022-12-18T03:51:40;102178.59;;;-5.14;80.76
44453;BME280;30155;52.164;21.236;2022-12-18T03:56:42;102180.61;;;-5.15;80.74
44453;BME280;30155;52.164;21.236;2022-12-18T04:01:38;102173.73;;;-5.16;80.65
44453;BME280;30155;52.164;21.236;2022-12-18T04:06:33;102171.92;;;-5.17;80.69
44453;BME280;30155;52.164;21.236;2022-12-18T04:11:25;102183.38;;;-5.21;80.59
44453;BME280;30155;52.164;21.236;2022-12-18T04:16:17;102193.91;;;-5.21;80.59
44453;BME280;30155;52.164;21.236;2022-12-18T04:21:10;102195.17;;;-5.21;80.60
44453;BME280;30155;52.164;21.236;2022-12-18T04:26:01;102188.89;;;-5.25;80.33
44453;BME280;30155;52.164;21.236;2022-12-18T04:31:11;102201.08;;;-5.29;80.54
44453;BME280;30155;52.164;21.236;2022-12-18T04:36:04;102225.33;;;-5.28;80.68
44453;BME280;30155;52.164;21.236;2022-12-18T04:40:57;102217.38;;;-5.27;80.68
44453;BME280;30155;52.164;21.236;2022-12-18T04:45:50;102236.69;;;-5.24;80.79
44453;BME280;30155;52.164;21.236;2022-12-18T04:50:41;102242.14;;;-5.25;80.66
44453;BME280;30155;52.164;21.236;2022-12-18T04:55:32;102248.86;;;-5.25;80.66
44453;BME280;30155;52.164;21.236;2022-12-18T05:00:23;102253.92;;;-5.25;80.54
44453;BME280;30155;52.164;21.236;2022-12-18T05:05:14;102250.13;;;-5.25;80.60
44453;BME280;30155;52.164;21.236;2022-12-18T05:10:06;102258.83;;;-5.27;80.59
44453;BME280;30155;52.164;21.236;2022-12-18T05:14:57;102271.34;;;-5.28;80.40
44453;BME280;30155;52.164;21.236;2022-12-18T05:19:48;102277.01;;;-5.31;80.54
44453;BME280;30155;52.164;21.236;2022-12-18T05:24:39;102287.28;;;-5.29;80.54
44453;BME280;30155;52.164;21.236;2022-12-18T05:29:31;102287.50;;;-5.31;80.44
44453;BME280;30155;52.164;21.236;2022-12-18T05:34:22;102299.07;;;-5.30;80.58
44453;BME280;30155;52.164;21.236;2022-12-18T05:39:13;102302.92;;;-5.33;80.48
44453;BME280;30155;52.164;21.236;2022-12-18T05:44:04;102308.37;;;-5.34;80.50
44453;BME280;30155;52.164;21.236;2022-12-18T05:49:00;102318.89;;;-5.34;80.59
44453;BME280;30155;52.164;21.236;2022-12-18T05:53:51;102319.06;;;-5.37;80.33
44453;BME280;30155;52.164;21.236;2022-12-18T05:58:43;102330.17;;;-5.40;80.25
44453;BME280;30155;52.164;21.236;2022-12-18T06:03:35;102330.05;;;-5.45;80.27
44453;BME280;30155;52.164;21.236;2022-12-18T06:08:26;102334.98;;;-5.50;80.34
44453;BME280;30155;52.164;21.236;2022-12-18T06:13:17;102349.86;;;-5.53;80.39
44453;BME280;30155;52.164;21.236;2022-12-18T06:18:08;102363.80;;;-5.53;80.48
44453;BME280;30155;52.164;21.236;2022-12-18T06:22:59;102365.81;;;-5.54;80.25
44453;BME280;30155;52.164;21.236;2022-12-18T06:27:51;102366.54;;;-5.55;80.44
44453;BME280;30155;52.164;21.236;2022-12-18T06:32:42;102370.75;;;-5.59;80.08
44453;BME280;30155;52.164;21.236;2022-12-18T06:37:33;102388.88;;;-5.60;80.32
44453;BME280;30155;52.164;21.236;2022-12-18T06:42:25;102403.70;;;-5.59;80.31
44453;BME280;30155;52.164;21.236;2022-12-18T06:47:16;102420.17;;;-5.59;80.23
44453;BME280;30155;52.164;21.236;2022-12-18T06:52:07;102416.00;;;-5.59;80.33
44453;BME280;30155;52.164;21.236;2022-12-18T06:56:58;102432.84;;;-5.59;80.12
44453;BME280;30155;52.164;21.236;2022-12-18T07:01:49;102435.18;;;-5.57;80.21
44453;BME280;30155;52.164;21.236;2022-12-18T07:06:40;102443.33;;;-5.56;80.25
44453;BME280;30155;52.164;21.236;2022-12-18T07:11:34;102452.69;;;-5.51;80.50
44453;BME280;30155;52.164;21.236;2022-12-18T07:16:26;102464.61;;;-5.47;80.33
44453;BME280;30155;52.164;21.236;2022-12-18T07:21:19;102474.68;;;-5.40;80.48
44453;BME280;30155;52.164;21.236;2022-12-18T07:26:12;102482.22;;;-5.32;80.33
44453;BME280;30155;52.164;21.236;2022-12-18T07:31:09;102493.94;;;-5.26;80.23
44453;BME280;30155;52.164;21.236;2022-12-18T07:36:00;102499.66;;;-5.20;80.30
44453;BME280;30155;52.164;21.236;2022-12-18T07:40:54;102491.81;;;-5.14;80.12
44453;BME280;30155;52.164;21.236;2022-12-18T07:45:45;102497.36;;;-5.06;80.10
44453;BME280;30155;52.164;21.236;2022-12-18T07:50:37;102489.50;;;-5.00;79.95
44453;BME280;30155;52.164;21.236;2022-12-18T07:55:28;102500.26;;;-4.90;79.82
44453;BME280;30155;52.164;21.236;2022-12-18T08:00:21;102503.47;;;-4.84;79.76
44453;BME280;30155;52.164;21.236;2022-12-18T08:05:13;102520.61;;;-4.78;79.79
44453;BME280;30155;52.164;21.236;2022-12-18T08:10:05;102529.83;;;-4.75;79.49
44453;BME280;30155;52.164;21.236;2022-12-18T08:14:57;102539.91;;;-4.68;79.68
44453;BME280;30155;52.164;21.236;2022-12-18T08:19:48;102539.20;;;-4.54;79.73
44453;BME280;30155;52.164;21.236;2022-12-18T08:24:39;102549.34;;;-4.38;79.53
44453;BME280;30155;52.164;21.236;2022-12-18T08:29:30;102556.53;;;-4.31;79.35
44453;BME280;30155;52.164;21.236;2022-12-18T08:34:22;102566.44;;;-4.25;79.31
44453;BME280;30155;52.164;21.236;2022-12-18T08:39:13;102574.44;;;-4.13;79.09
44453;BME280;30155;52.164;21.236;2022-12-18T08:44:06;102578.48;;;-4.03;78.96
44453;BME280;30155;52.164;21.236;2022-12-18T08:49:15;102586.23;;;-3.98;78.55
44453;BME280;30155;52.164;21.236;2022-12-18T08:54:07;102586.02;;;-3.96;78.85
44453;BME280;30155;52.164;21.236;2022-12-18T08:58:59;102588.24;;;-3.87;78.86
44453;BME280;30155;52.164;21.236;2022-12-18T09:03:51;102587.80;;;-3.79;78.89
44453;BME280;30155;52.164;21.236;2022-12-18T09:08:43;102589.86;;;-3.71;78.73
44453;BME280;30155;52.164;21.236;2022-12-18T09:13:35;102597.05;;;-3.67;78.44
44453;BME280;30155;52.164;21.236;2022-12-18T09:18:26;102603.52;;;-3.62;78.59
44453;BME280;30155;52.164;21.236;2022-12-18T09:23:18;102613.37;;;-3.53;78.66
44453;BME280;30155;52.164;21.236;2022-12-18T09:28:14;102618.90;;;-3.45;78.30
44453;BME280;30155;52.164;21.236;2022-12-18T09:33:06;102620.84;;;-3.42;78.48
44453;BME280;30155;52.164;21.236;2022-12-18T09:37:57;102615.92;;;-3.28;78.46
44453;BME280;30155;52.164;21.236;2022-12-18T09:42:55;102617.23;;;-3.19;78.33
44453;BME280;30155;52.164;21.236;2022-12-18T09:47:50;102619.11;;;-3.01;78.56
44453;BME280;30155;52.164;21.236;2022-12-18T09:52:45;102618.73;;;-2.79;77.88
44453;BME280;30155;52.164;21.236;2022-12-18T09:57:42;102621.48;;;-2.69;77.81
44453;BME280;30155;52.164;21.236;2022-12-18T10:02:35;102619.01;;;-2.43;77.81
44453;BME280;30155;52.164;21.236;2022-12-18T10:07:34;102614.68;;;-2.26;77.66
44453;BME280;30155;52.164;21.236;2022-12-18T10:17:49;102617.83;;;-2.12;77.18
44453;BME280;30155;52.164;21.236;2022-12-18T10:28:13;102617.10;;;-2.02;76.46
44453;BME280;30155;52.164;21.236;2022-12-18T10:33:08;102634.17;;;-2.01;76.62
44453;BME280;30155;52.164;21.236;2022-12-18T10:43:13;102646.04;;;-1.93;76.61
44453;BME280;30155;52.164;21.236;2022-12-18T10:48:19;102641.83;;;-2.01;76.23
44453;BME280;30155;52.164;21.236;2022-12-18T10:53:17;102624.42;;;-2.22;75.93
44453;BME280;30155;52.164;21.236;2022-12-18T10:58:23;102625.63;;;-2.19;76.40
44453;BME280;30155;52.164;21.236;2022-12-18T11:03:38;102640.25;;;-2.21;76.11
44453;BME280;30155;52.164;21.236;2022-12-18T11:08:35;102639.11;;;-2.11;76.66
44453;BME280;30155;52.164;21.236;2022-12-18T11:13:29;102640.92;;;-2.10;76.13
44453;BME280;30155;52.164;21.236;2022-12-18T11:18:30;102649.62;;;-2.08;76.39
44453;BME280;30155;52.164;21.236;2022-12-18T11:23:24;102656.00;;;-1.99;76.54
44453;BME280;30155;52.164;21.236;2022-12-18T11:28:40;102652.95;;;-2.00;76.22
44453;BME280;30155;52.164;21.236;2022-12-18T11:33:50;102663.49;;;-2.01;76.03
44453;BME280;30155;52.164;21.236;2022-12-18T11:38:42;102666.50;;;-2.05;75.49
44453;BME280;30155;52.164;21.236;2022-12-18T11:43:52;102652.17;;;-2.08;76.04
44453;BME280;30155;52.164;21.236;2022-12-18T11:48:48;102658.79;;;-1.93;75.74
44453;BME280;30155;52.164;21.236;2022-12-18T11:53:43;102666.06;;;-1.83;75.69
44453;BME280;30155;52.164;21.236;2022-12-18T11:58:46;102671.54;;;-1.93;75.49
44453;BME280;30155;52.164;21.236;2022-12-18T12:34:24;102685.46;;;-2.06;75.35
44453;BME280;30155;52.164;21.236;2022-12-18T12:39:35;102687.34;;;-2.09;75.47
44453;BME280;30155;52.164;21.236;2022-12-18T12:44:40;102680.98;;;-2.00;75.67
44453;BME280;30155;52.164;21.236;2022-12-18T12:49:38;102688.78;;;-2.07;75.32
44453;BME280;30155;52.164;21.236;2022-12-18T12:54:31;102705.45;;;-2.15;75.43
44453;BME280;30155;52.164;21.236;2022-12-18T12:59:41;102718.94;;;-2.24;75.76
44453;BME280;30155;52.164;21.236;2022-12-18T13:04:45;102724.61;;;-2.36;75.50
44453;BME280;30155;52.164;21.236;2022-12-18T13:15:21;102733.09;;;-2.65;75.80
44453;BME280;30155;52.164;21.236;2022-12-18T13:20:20;102729.14;;;-2.79;76.01
44453;BME280;30155;52.164;21.236;2022-12-18T13:45:44;102761.38;;;-3.20;76.95
44453;BME280;30155;52.164;21.236;2022-12-18T13:50:38;102771.95;;;-3.24;77.04
44453;BME280;30155;52.164;21.236;2022-12-18T13:55:30;102766.23;;;-3.30;76.88
44453;BME280;30155;52.164;21.236;2022-12-18T14:00:27;102769.08;;;-3.39;76.99
44453;BME280;30155;52.164;21.236;2022-12-18T14:05:32;102763.75;;;-3.50;77.08
44453;BME280;30155;52.164;21.236;2022-12-18T14:10:23;102773.47;;;-3.58;77.25
44453;BME280;30155;52.164;21.236;2022-12-18T14:20:15;102790.62;;;-3.64;77.46
44453;BME280;30155;52.164;21.236;2022-12-18T14:25:23;102795.78;;;-3.71;77.49
44453;BME280;30155;52.164;21.236;2022-12-18T14:30:29;102799.09;;;-3.76;77.63
44453;BME280;30155;52.164;21.236;2022-12-18T14:35:22;102798.23;;;-3.80;77.77
44453;BME280;30155;52.164;21.236;2022-12-18T14:40:14;102816.41;;;-3.80;78.06
44453;BME280;30155;52.164;21.236;2022-12-18T14:50:27;102818.12;;;-3.92;78.12
44453;BME280;30155;52.164;21.236;2022-12-18T14:55:20;102813.22;;;-3.90;78.31
44453;BME280;30155;52.164;21.236;2022-12-18T15:00:17;102814.70;;;-3.92;78.25
44453;BME280;30155;52.164;21.236;2022-12-18T15:05:25;102819.61;;;-3.94;78.47
44453;BME280;30155;52.164;21.236;2022-12-18T15:10:26;102822.35;;;-3.96;78.44
44453;BME280;30155;52.164;21.236;2022-12-18T15:20:59;102827.09;;;-3.99;78.39
44453;BME280;30155;52.164;21.236;2022-12-18T15:31:05;102835.27;;;-3.98;78.63
44453;BME280;30155;52.164;21.236;2022-12-18T15:36:10;102833.62;;;-3.97;78.76
44453;BME280;30155;52.164;21.236;2022-12-18T15:41:03;102841.66;;;-4.02;78.62
44453;BME280;30155;52.164;21.236;2022-12-18T15:45:54;102842.55;;;-4.01;78.82
44453;BME280;30155;52.164;21.236;2022-12-18T15:50:46;102853.06;;;-3.98;78.98
44453;BME280;30155;52.164;21.236;2022-12-18T15:55:38;102863.77;;;-3.97;78.99
44453;BME280;30155;52.164;21.236;2022-12-18T16:00:48;102859.44;;;-4.02;78.53
44453;BME280;30155;52.164;21.236;2022-12-18T16:05:39;102864.00;;;-4.06;78.78
44453;BME280;30155;52.164;21.236;2022-12-18T16:10:30;102865.66;;;-4.07;78.74
44453;BME280;30155;52.164;21.236;2022-12-18T16:15:22;102872.92;;;-4.10;78.58
44453;BME280;30155;52.164;21.236;2022-12-18T16:20:19;102874.20;;;-4.10;78.92
44453;BME280;30155;52.164;21.236;2022-12-18T16:25:18;102867.53;;;-4.13;78.75
44453;BME280;30155;52.164;21.236;2022-12-18T16:30:15;102861.90;;;-4.14;78.67
44453;BME280;30155;52.164;21.236;2022-12-18T16:35:12;102859.97;;;-4.20;78.66
44453;BME280;30155;52.164;21.236;2022-12-18T16:40:10;102870.47;;;-4.21;79.01
44453;BME280;30155;52.164;21.236;2022-12-18T16:45:01;102875.21;;;-4.20;78.98
44453;BME280;30155;52.164;21.236;2022-12-18T16:49:52;102869.75;;;-4.19;79.14
44453;BME280;30155;52.164;21.236;2022-12-18T16:54:44;102874.28;;;-4.21;78.97
44453;BME280;30155;52.164;21.236;2022-12-18T16:59:35;102871.74;;;-4.21;79.05
44453;BME280;30155;52.164;21.236;2022-12-18T17:04:26;102884.44;;;-4.21;79.13
44453;BME280;30155;52.164;21.236;2022-12-18T17:09:19;102881.01;;;-4.21;79.14
44453;BME280;30155;52.164;21.236;2022-12-18T17:14:20;102881.73;;;-4.22;79.18
44453;BME280;30155;52.164;21.236;2022-12-18T17:19:13;102878.70;;;-4.27;79.14
44453;BME280;30155;52.164;21.236;2022-12-18T17:24:06;102893.41;;;-4.31;78.95
44453;BME280;30155;52.164;21.236;2022-12-18T17:28:58;102904.15;;;-4.34;78.97
44453;BME280;30155;52.164;21.236;2022-12-18T17:33:50;102908.88;;;-4.37;78.94
44453;BME280;30155;52.164;21.236;2022-12-18T17:38:43;102898.02;;;-4.39;79.04
44453;BME280;30155;52.164;21.236;2022-12-18T17:43:51;102899.83;;;-4.42;79.01
44453;BME280;30155;52.164;21.236;2022-12-18T17:48:43;102897.49;;;-4.44;79.05
44453;BME280;30155;52.164;21.236;2022-12-18T17:53:36;102899.88;;;-4.49;78.89
44453;BME280;30155;52.164;21.236;2022-12-18T17:58:33;102896.47;;;-4.53;78.92
44453;BME280;30155;52.164;21.236;2022-12-18T18:03:28;102897.06;;;-4.60;78.97
44453;BME280;30155;52.164;21.236;2022-12-18T18:08:19;102911.00;;;-4.56;79.15
44453;BME280;30155;52.164;21.236;2022-12-18T18:13:16;102931.14;;;-4.57;79.07
44453;BME280;30155;52.164;21.236;2022-12-18T18:18:29;102939.11;;;-4.62;78.99
44453;BME280;30155;52.164;21.236;2022-12-18T18:23:21;102925.91;;;-4.63;79.18
44453;BME280;30155;52.164;21.236;2022-12-18T18:28:12;102928.95;;;-4.62;79.23
44453;BME280;30155;52.164;21.236;2022-12-18T18:33:03;102919.91;;;-4.60;79.36
44453;BME280;30155;52.164;21.236;2022-12-18T18:37:55;102910.67;;;-4.63;79.04
44453;BME280;30155;52.164;21.236;2022-12-18T18:42:46;102920.30;;;-4.71;78.98
44453;BME280;30155;52.164;21.236;2022-12-18T18:47:38;102933.00;;;-4.71;79.10
44453;BME280;30155;52.164;21.236;2022-12-18T18:52:29;102928.48;;;-4.73;79.13
44453;BME280;30155;52.164;21.236;2022-12-18T18:57:20;102950.41;;;-4.74;79.28
44453;BME280;30155;52.164;21.236;2022-12-18T19:02:12;102938.98;;;-4.74;79.23
44453;BME280;30155;52.164;21.236;2022-12-18T19:07:04;102931.37;;;-4.74;79.19
44453;BME280;30155;52.164;21.236;2022-12-18T19:11:56;102934.85;;;-4.77;79.21
44453;BME280;30155;52.164;21.236;2022-12-18T19:17:09;102926.88;;;-4.80;79.27
44453;BME280;30155;52.164;21.236;2022-12-18T19:22:00;102916.73;;;-4.80;79.32
44453;BME280;30155;52.164;21.236;2022-12-18T19:26:52;102920.17;;;-4.83;79.35
44453;BME280;30155;52.164;21.236;2022-12-18T19:31:43;102938.88;;;-4.86;79.34
44453;BME280;30155;52.164;21.236;2022-12-18T19:36:37;102941.97;;;-4.92;79.03
44453;BME280;30155;52.164;21.236;2022-12-18T19:41:29;102939.27;;;-4.98;79.09
44453;BME280;30155;52.164;21.236;2022-12-18T19:46:22;102942.16;;;-4.94;79.38
44453;BME280;30155;52.164;21.236;2022-12-18T19:51:16;102955.74;;;-4.94;79.38
44453;BME280;30155;52.164;21.236;2022-12-18T19:56:16;102961.36;;;-4.89;79.55
44453;BME280;30155;52.164;21.236;2022-12-18T20:01:10;102960.45;;;-4.86;79.54
44453;BME280;30155;52.164;21.236;2022-12-18T20:11:01;102961.53;;;-4.84;79.62
44453;BME280;30155;52.164;21.236;2022-12-18T20:15:52;102951.91;;;-4.87;79.47
44453;BME280;30155;52.164;21.236;2022-12-18T20:20:44;102953.00;;;-4.88;79.54
44453;BME280;30155;52.164;21.236;2022-12-18T20:25:37;102960.27;;;-4.88;79.60
44453;BME280;30155;52.164;21.236;2022-12-18T20:30:28;102949.94;;;-4.89;79.46
44453;BME280;30155;52.164;21.236;2022-12-18T20:35:19;102957.02;;;-4.94;79.36
44453;BME280;30155;52.164;21.236;2022-12-18T20:40:15;102958.48;;;-5.00;79.18
44453;BME280;30155;52.164;21.236;2022-12-18T20:45:05;102945.63;;;-5.05;79.35
44453;BME280;30155;52.164;21.236;2022-12-18T20:49:56;102946.90;;;-5.05;79.54
44453;BME280;30155;52.164;21.236;2022-12-18T20:54:50;102951.26;;;-5.04;79.41
44453;BME280;30155;52.164;21.236;2022-12-18T20:59:41;102943.83;;;-5.02;79.46
44453;BME280;30155;52.164;21.236;2022-12-18T21:04:32;102956.86;;;-5.03;79.43
44453;BME280;30155;52.164;21.236;2022-12-18T21:09:23;102971.55;;;-5.04;79.30
44453;BME280;30155;52.164;21.236;2022-12-18T21:14:20;102976.08;;;-5.05;79.24
44453;BME280;30155;52.164;21.236;2022-12-18T21:19:22;102991.69;;;-5.12;79.04
44453;BME280;30155;52.164;21.236;2022-12-18T21:24:14;102985.34;;;-5.16;79.22
44453;BME280;30155;52.164;21.236;2022-12-18T21:29:09;102974.31;;;-5.20;79.17
44453;BME280;30155;52.164;21.236;2022-12-18T21:34:01;102969.44;;;-5.22;79.11
44453;BME280;30155;52.164;21.236;2022-12-18T21:38:53;102972.50;;;-5.25;79.27
44453;BME280;30155;52.164;21.236;2022-12-18T21:43:45;102970.86;;;-5.24;79.30
44453;BME280;30155;52.164;21.236;2022-12-18T21:48:54;102963.25;;;-5.24;79.40
44453;BME280;30155;52.164;21.236;2022-12-18T21:53:45;102952.39;;;-5.23;79.35
44453;BME280;30155;52.164;21.236;2022-12-18T21:58:37;102950.41;;;-5.22;79.38
44453;BME280;30155;52.164;21.236;2022-12-18T22:03:28;102938.27;;;-5.32;78.93
44453;BME280;30155;52.164;21.236;2022-12-18T22:08:20;102929.41;;;-5.36;79.13
44453;BME280;30155;52.164;21.236;2022-12-18T22:13:12;102916.73;;;-5.39;78.96
44453;BME280;30155;52.164;21.236;2022-12-18T22:18:03;102904.78;;;-5.44;79.00
44453;BME280;30155;52.164;21.236;2022-12-18T22:22:54;102895.91;;;-5.47;79.10
44453;BME280;30155;52.164;21.236;2022-12-18T22:27:46;102895.02;;;-5.48;79.24
44453;BME280;30155;52.164;21.236;2022-12-18T22:32:39;102878.02;;;-5.49;79.23
44453;BME280;30155;52.164;21.236;2022-12-18T22:37:31;102869.86;;;-5.50;79.13
44453;BME280;30155;52.164;21.236;2022-12-18T22:42:23;102869.86;;;-5.50;79.31
44453;BME280;30155;52.164;21.236;2022-12-18T22:47:14;102870.57;;;-5.51;79.08
44453;BME280;30155;52.164;21.236;2022-12-18T22:52:06;102867.89;;;-5.56;78.99
44453;BME280;30155;52.164;21.236;2022-12-18T22:57:00;102873.87;;;-5.59;79.18
44453;BME280;30155;52.164;21.236;2022-12-18T23:01:51;102869.69;;;-5.59;79.08
44453;BME280;30155;52.164;21.236;2022-12-18T23:06:43;102879.32;;;-5.67;78.96
44453;BME280;30155;52.164;21.236;2022-12-18T23:11:35;102879.85;;;-5.69;78.96
44453;BME280;30155;52.164;21.236;2022-12-18T23:16:27;102866.67;;;-5.78;78.86
44453;BME280;30155;52.164;21.236;2022-12-18T23:21:19;102877.52;;;-5.86;78.80
44453;BME280;30155;52.164;21.236;2022-12-18T23:26:17;102876.44;;;-5.88;79.04
44453;BME280;30155;52.164;21.236;2022-12-18T23:31:22;102868.28;;;-5.89;78.98
44453;BME280;30155;52.164;21.236;2022-12-18T23:36:16;102860.87;;;-5.91;79.12
44453;BME280;30155;52.164;21.236;2022-12-18T23:41:13;102863.03;;;-5.87;79.20
44453;BME280;30155;52.164;21.236;2022-12-18T23:46:24;102853.64;;;-5.88;79.23
44453;BME280;30155;52.164;21.236;2022-12-18T23:51:09;102862.69;;;-5.90;79.18
44453;BME280;30155;52.164;21.236;2022-12-18T23:56:03;102863.58;;;-5.86;79.38
